Time;durP1;ratioP1;P1;durP2;ratioP2;P2;SDS_P1;SDS_P2;PMS_P1;PMS_P2;Temp;Humidity;BMP_temperature;BMP_pressure;BME280_temperature;BME280_humidity;BME280_pressure;Samples;Min_cycle;Max_cycle;Signal;HPM_P1;HPM_P2
2022/06/25 00:01:14;;;;;;;0.20;0.20;;;26.20;96.30;;;;;;5056994;28;20059;-57
2022/06/25 00:03:42;;;;;;;0.25;0.25;;;26.20;96.20;;;;;;5060493;28;20052;-59
2022/06/25 00:06:11;;;;;;;0.20;0.20;;;26.20;96.10;;;;;;5051842;28;20112;-54
2022/06/25 00:08:47;;;;;;;2.83;0.73;;;26.20;96.20;;;;;;5052322;28;20044;-55
2022/06/25 00:14:07;;;;;;;0.35;0.35;;;26.20;96.30;;;;;;5049884;28;20431;-55
2022/06/25 00:16:36;;;;;;;0.20;0.20;;;26.10;96.40;;;;;;5054015;28;20049;-56
2022/06/25 00:19:04;;;;;;;0.40;0.40;;;26.10;96.50;;;;;;5057722;28;20069;-58
2022/06/25 00:21:31;;;;;;;0.22;0.22;;;26.10;96.40;;;;;;5056302;28;20487;-56
2022/06/25 00:23:59;;;;;;;1.00;0.70;;;26.10;96.30;;;;;;5057436;28;20060;-57
2022/06/25 00:26:27;;;;;;;0.20;0.20;;;26.10;96.40;;;;;;5047361;28;20049;-55
2022/06/25 00:28:54;;;;;;;2.53;1.05;;;26.10;96.20;;;;;;5061007;28;20044;-57
2022/06/25 00:31:22;;;;;;;0.32;0.30;;;26.10;96.20;;;;;;5052449;28;20055;-58
2022/06/25 00:33:50;;;;;;;0.30;0.30;;;26.10;96.10;;;;;;5051121;28;20037;-56
2022/06/25 00:36:17;;;;;;;1.17;1.02;;;26.10;96.00;;;;;;5054139;28;20409;-56
2022/06/25 00:38:46;;;;;;;0.30;0.30;;;26.10;96.20;;;;;;5052860;28;20064;-56
2022/06/25 00:41:13;;;;;;;0.20;0.20;;;26.10;95.90;;;;;;5054328;28;20055;-59
2022/06/25 00:43:41;;;;;;;0.20;0.20;;;26.10;95.90;;;;;;5051095;28;20408;-59
2022/06/25 00:46:08;;;;;;;0.40;0.40;;;26.10;95.90;;;;;;5054891;28;20048;-58
2022/06/25 00:48:36;;;;;;;0.40;0.40;;;26.10;95.70;;;;;;5055786;28;20159;-57
2022/06/25 00:51:12;;;;;;;0.60;0.60;;;26.10;95.70;;;;;;5066953;28;20052;-58
2022/06/25 00:53:45;;;;;;;0.43;0.43;;;26.10;95.90;;;;;;5064668;28;20063;-59
2022/06/25 00:56:14;;;;;;;0.40;0.40;;;26.10;95.80;;;;;;5053620;28;20436;-54
2022/06/25 00:58:44;;;;;;;0.20;0.20;;;26.10;95.70;;;;;;5063248;28;20045;-59
2022/06/25 01:01:13;;;;;;;1.80;0.98;;;26.10;95.70;;;;;;5057548;28;20064;-54
2022/06/25 01:03:41;;;;;;;0.30;0.30;;;26.10;95.70;;;;;;5057585;28;20061;-57
2022/06/25 01:06:09;;;;;;;0.30;0.30;;;26.10;95.70;;;;;;5063683;28;20048;-58
2022/06/25 01:08:36;;;;;;;;;;;26.10;95.70;;;;;;5060664;28;20052;-56
2022/06/25 01:11:04;;;;;;;0.40;0.40;;;26.10;95.70;;;;;;5065272;28;19924;-58
2022/06/25 01:13:31;;;;;;;;;;;26.10;96.30;;;;;;5050286;28;20060;-56
2022/06/25 01:15:59;;;;;;;0.50;0.50;;;26.00;95.50;;;;;;5062909;28;19935;-56
2022/06/25 01:18:27;;;;;;;0.60;0.60;;;26.00;95.20;;;;;;5065966;28;20087;-58
2022/06/25 01:20:55;;;;;;;0.20;0.20;;;25.90;93.90;;;;;;5056505;28;20448;-56
2022/06/25 01:23:23;;;;;;;0.40;0.40;;;25.80;93.60;;;;;;5056986;28;20063;-59
2022/06/25 01:25:50;;;;;;;;;;;25.70;93.50;;;;;;5065748;28;20059;-56
2022/06/25 01:28:18;;;;;;;0.20;0.20;;;25.70;94.20;;;;;;5053651;28;19924;-59
2022/06/25 01:30:45;;;;;;;;;;;25.70;94.20;;;;;;5059594;28;20075;-55
2022/06/25 01:33:12;;;;;;;1.35;0.95;;;25.80;94.40;;;;;;5053125;28;19925;-58
2022/06/25 01:35:41;;;;;;;0.40;0.40;;;25.80;94.20;;;;;;5050423;28;20052;-57
2022/06/25 01:38:08;;;;;;;0.30;0.30;;;25.80;94.20;;;;;;5050269;28;20426;-56
2022/06/25 01:40:36;;;;;;;1.23;0.47;;;25.80;94.20;;;;;;5055639;28;20519;-59
2022/06/25 01:43:03;;;;;;;0.40;0.40;;;25.90;94.20;;;;;;5048963;28;20572;-55
2022/06/25 01:45:37;;;;;;;0.60;0.60;;;25.90;94.20;;;;;;5052241;28;20053;-57
2022/06/25 01:48:06;;;;;;;0.50;0.50;;;25.90;94.40;;;;;;5059711;28;20427;-58
2022/06/25 01:50:35;;;;;;;1.13;0.85;;;25.90;94.50;;;;;;5056027;28;20080;-59
2022/06/25 01:53:04;;;;;;;0.47;0.47;;;25.90;94.50;;;;;;5051759;28;20048;-58
2022/06/25 01:55:32;;;;;;;0.25;0.25;;;25.90;94.70;;;;;;5058999;28;20055;-57
2022/06/25 01:58:01;;;;;;;1.02;0.75;;;25.90;94.70;;;;;;5058764;28;20510;-57
2022/06/25 02:00:31;;;;;;;0.35;0.35;;;25.90;94.90;;;;;;5055725;28;20057;-55
2022/06/25 02:03:06;;;;;;;0.30;0.30;;;25.90;95.00;;;;;;5055566;28;20048;-57
2022/06/25 02:08:23;;;;;;;0.40;0.40;;;25.90;95.20;;;;;;5049678;28;20292;-58
2022/06/25 02:10:51;;;;;;;0.30;0.30;;;25.90;95.40;;;;;;5056647;28;20045;-56
2022/06/25 02:13:19;;;;;;;0.30;0.30;;;25.90;95.40;;;;;;5050582;28;20045;-57
2022/06/25 02:15:47;;;;;;;0.20;0.20;;;25.80;95.50;;;;;;5055206;28;20048;-57
2022/06/25 02:18:14;;;;;;;0.30;0.30;;;25.80;95.50;;;;;;5050594;28;20467;-57
2022/06/25 02:20:42;;;;;;;0.25;0.25;;;25.90;95.50;;;;;;5048956;28;20044;-56
2022/06/25 02:23:10;;;;;;;0.47;0.40;;;25.90;95.50;;;;;;5046435;28;20530;-53
2022/06/25 02:25:38;;;;;;;0.28;0.28;;;25.90;95.70;;;;;;5060523;28;20052;-59
2022/06/25 02:28:14;;;;;;;0.30;0.30;;;25.80;95.70;;;;;;5054417;28;20052;-54
2022/06/25 02:30:42;;;;;;;0.57;0.57;;;25.80;95.60;;;;;;5047940;28;20491;-55
2022/06/25 02:33:12;;;;;;;0.20;0.20;;;25.80;95.40;;;;;;5083252;28;20043;-60
2022/06/25 02:35:41;;;;;;;0.55;0.55;;;25.80;95.40;;;;;;5045790;28;20126;-57
2022/06/25 02:38:11;;;;;;;0.30;0.30;;;25.80;95.40;;;;;;5047814;28;20418;-58
2022/06/25 02:40:39;;;;;;;1.45;1.05;;;25.80;95.30;;;;;;5061118;28;20053;-57
2022/06/25 02:43:07;;;;;;;0.32;0.32;;;25.80;95.20;;;;;;5046005;28;20064;-56
2022/06/25 02:45:40;;;;;;;0.35;0.35;;;25.80;95.20;;;;;;5056737;28;20061;-58
2022/06/25 02:48:09;;;;;;;0.20;0.20;;;25.80;95.10;;;;;;5063105;28;20076;-58
2022/06/25 02:50:37;;;;;;;0.20;0.20;;;25.80;95.20;;;;;;5057098;28;20097;-53
2022/06/25 02:53:04;;;;;;;0.20;0.20;;;25.80;95.10;;;;;;5061875;28;20045;-56
2022/06/25 03:01:04;;;;;;;0.30;0.30;;;25.80;95.00;;;;;;5052673;28;20064;-55
2022/06/25 03:03:32;;;;;;;0.30;0.30;;;25.80;95.00;;;;;;5051756;28;20052;-55
2022/06/25 03:06:01;;;;;;;0.30;0.30;;;25.80;95.00;;;;;;5078608;28;20060;-56
2022/06/25 03:08:28;;;;;;;0.45;0.45;;;25.80;95.00;;;;;;5063955;28;20140;-53
2022/06/25 03:10:56;;;;;;;0.22;0.22;;;25.80;95.00;;;;;;5056215;28;20436;-57
2022/06/25 03:13:24;;;;;;;0.50;0.50;;;25.80;94.90;;;;;;5047713;28;20056;-58
2022/06/25 03:15:51;;;;;;;;;;;25.80;95.00;;;;;;5059038;28;20063;-54
2022/06/25 03:18:19;;;;;;;0.30;0.30;;;25.80;94.90;;;;;;5055673;28;19931;-56
2022/06/25 03:21:06;;;;;;;0.30;0.30;;;25.80;94.90;;;;;;5056038;28;20079;-59
2022/06/25 03:23:36;;;;;;;1.98;1.10;;;25.80;94.80;;;;;;5046744;28;20511;-55
2022/06/25 03:26:03;;;;;;;0.68;0.68;;;25.70;94.80;;;;;;5055101;28;20060;-55
2022/06/25 03:28:31;;;;;;;;;;;25.70;94.80;;;;;;5051236;28;20048;-56
2022/06/25 03:30:59;;;;;;;0.30;0.30;;;25.70;95.00;;;;;;5046681;28;20458;-52
2022/06/25 03:33:27;;;;;;;0.32;0.32;;;25.70;94.90;;;;;;5046070;28;20057;-54
2022/06/25 03:36:05;;;;;;;0.52;0.52;;;25.70;94.90;;;;;;5059405;28;20056;-57
2022/06/25 03:38:40;;;;;;;0.32;0.32;;;25.70;94.80;;;;;;5063561;28;20051;-63
2022/06/25 03:44:05;;;;;;;0.25;0.25;;;25.70;94.70;;;;;;5045495;28;19932;-56
2022/06/25 03:46:35;;;;;;;0.30;0.30;;;25.70;94.70;;;;;;5058045;28;20056;-57
2022/06/25 03:49:04;;;;;;;1.58;0.45;;;25.70;94.70;;;;;;5051217;28;20044;-57
2022/06/25 03:51:52;;;;;;;0.30;0.30;;;25.70;94.70;;;;;;5051490;28;20052;-56
2022/06/25 03:54:20;;;;;;;0.35;0.35;;;25.70;94.60;;;;;;5050037;28;20060;-54
2022/06/25 03:56:48;;;;;;;0.50;0.50;;;25.80;94.50;;;;;;5054742;28;20061;-57
2022/06/25 03:59:17;;;;;;;0.20;0.20;;;25.90;94.50;;;;;;5063769;28;20052;-52
2022/06/25 04:01:46;;;;;;;0.30;0.30;;;25.90;94.40;;;;;;5057938;28;20059;-52
2022/06/25 04:04:14;;;;;;;0.40;0.40;;;25.90;94.30;;;;;;5061708;28;20067;-58
2022/06/25 04:06:42;;;;;;;;;;;26.00;94.40;;;;;;5058648;28;20056;-54
2022/06/25 04:09:09;;;;;;;0.50;0.50;;;26.00;94.30;;;;;;5057846;28;19925;-55
2022/06/25 04:11:37;;;;;;;0.30;0.30;;;26.00;94.30;;;;;;5069901;28;20049;-53
2022/06/25 04:14:04;;;;;;;0.38;0.38;;;26.00;94.20;;;;;;5046316;28;20509;-55
2022/06/25 04:16:32;;;;;;;0.20;0.20;;;26.00;94.20;;;;;;5050647;28;20045;-58
2022/06/25 04:19:09;;;;;;;;;;;26.00;94.20;;;;;;5056433;28;20055;-56
2022/06/25 04:21:38;;;;;;;0.40;0.40;;;26.00;94.40;;;;;;5081617;28;19928;-55
2022/06/25 04:24:06;;;;;;;0.50;0.50;;;26.00;94.10;;;;;;5059298;28;20412;-58
2022/06/25 04:26:34;;;;;;;;;;;26.10;94.00;;;;;;5061966;28;20052;-57
2022/06/25 04:29:04;;;;;;;4.07;1.77;;;26.00;94.00;;;;;;5065264;28;19932;-57
2022/06/25 04:31:54;;;;;;;0.50;0.50;;;26.10;94.10;;;;;;5072558;28;20048;-57
2022/06/25 04:34:50;;;;;;;0.30;0.30;;;26.00;94.10;;;;;;5059627;28;20056;-59
2022/06/25 04:37:18;;;;;;;0.22;0.22;;;26.00;93.90;;;;;;5061948;28;20864;-57
2022/06/25 04:39:46;;;;;;;0.45;0.45;;;26.10;93.80;;;;;;5061692;28;20044;-57
2022/06/25 04:42:13;;;;;;;;;;;26.10;93.70;;;;;;5061157;28;20056;-58
2022/06/25 04:44:42;;;;;;;0.28;0.28;;;26.10;93.70;;;;;;5054071;28;19959;-57
2022/06/25 04:47:09;;;;;;;;;;;26.10;93.60;;;;;;5055926;28;20416;-56
2022/06/25 04:49:43;;;;;;;0.55;0.52;;;26.10;93.60;;;;;;5066859;28;19924;-58
2022/06/25 04:52:11;;;;;;;0.20;0.20;;;26.10;93.50;;;;;;5070439;28;20082;-58
2022/06/25 04:54:38;;;;;;;0.98;0.52;;;26.10;93.50;;;;;;5058754;28;20248;-58
2022/06/25 04:57:15;;;;;;;0.30;0.30;;;26.10;93.60;;;;;;5071302;28;20052;-57
2022/06/25 05:00:01;;;;;;;0.22;0.22;;;26.00;93.50;;;;;;5066053;28;20519;-55
2022/06/25 05:02:35;;;;;;;0.50;0.50;;;26.00;93.50;;;;;;5061704;28;20056;-58
2022/06/25 05:05:10;;;;;;;0.40;0.40;;;26.00;93.40;;;;;;5058826;28;20063;-56
2022/06/25 05:07:37;;;;;;;0.95;0.80;;;26.10;93.40;;;;;;5067375;28;20067;-52
2022/06/25 05:10:05;;;;;;;0.50;0.50;;;26.00;93.40;;;;;;5064438;28;20048;-55
2022/06/25 05:15:19;;;;;;;0.30;0.30;;;26.10;93.40;;;;;;5067162;28;20078;-56
2022/06/25 05:17:47;;;;;;;0.32;0.32;;;26.00;93.40;;;;;;5055480;28;20393;-59
2022/06/25 05:20:19;;;;;;;0.30;0.30;;;26.00;93.40;;;;;;5064443;28;20052;-60
2022/06/25 05:22:47;;;;;;;0.35;0.35;;;26.00;93.30;;;;;;5054757;28;20052;-60
2022/06/25 05:25:16;;;;;;;0.40;0.40;;;26.00;93.30;;;;;;5066430;28;20067;-57
2022/06/25 05:27:44;;;;;;;0.50;0.50;;;26.00;93.30;;;;;;5065177;28;20152;-57
2022/06/25 05:30:12;;;;;;;0.40;0.40;;;26.00;93.30;;;;;;5056107;28;20060;-58
2022/06/25 05:32:40;;;;;;;0.75;0.75;;;26.00;93.30;;;;;;5055388;28;20049;-56
2022/06/25 05:35:08;;;;;;;0.20;0.20;;;26.00;93.30;;;;;;5056388;28;20048;-58
2022/06/25 05:37:36;;;;;;;0.25;0.25;;;26.00;93.30;;;;;;5073596;28;20044;-55
2022/06/25 05:40:04;;;;;;;0.30;0.30;;;26.00;93.30;;;;;;5054191;28;20045;-58
2022/06/25 05:42:33;;;;;;;0.30;0.30;;;26.00;93.30;;;;;;5057394;28;20044;-56
2022/06/25 05:45:01;;;;;;;0.20;0.20;;;26.00;93.30;;;;;;5058024;28;20049;-54
2022/06/25 05:47:29;;;;;;;0.50;0.50;;;26.00;93.40;;;;;;5054573;28;20056;-55
2022/06/25 05:49:56;;;;;;;0.40;0.40;;;26.00;93.60;;;;;;5055781;28;20039;-55
2022/06/25 05:52:23;;;;;;;0.50;0.50;;;26.00;93.50;;;;;;5057329;28;20056;-59
2022/06/25 05:54:51;;;;;;;0.88;0.52;;;26.00;93.20;;;;;;5080968;28;20048;-54
2022/06/25 05:57:19;;;;;;;0.98;0.88;;;25.90;93.10;;;;;;5052856;28;20452;-55
2022/06/25 05:59:47;;;;;;;0.30;0.30;;;25.90;93.00;;;;;;5051499;28;20053;-58
2022/06/25 06:02:14;;;;;;;0.30;0.30;;;25.90;93.00;;;;;;5050764;28;20052;-57
2022/06/25 06:04:41;;;;;;;5.07;2.58;;;25.90;92.90;;;;;;5054876;28;20060;-57
2022/06/25 06:07:09;;;;;;;2.13;1.00;;;25.80;92.80;;;;;;5054253;28;20443;-56
2022/06/25 06:09:37;;;;;;;0.65;0.65;;;25.90;92.90;;;;;;5053899;28;20060;-58
2022/06/25 06:12:04;;;;;;;0.82;0.77;;;25.90;92.90;;;;;;5063307;28;20066;-54
2022/06/25 06:14:32;;;;;;;0.65;0.65;;;25.90;92.90;;;;;;5062828;28;20067;-55
2022/06/25 06:16:59;;;;;;;0.28;0.28;;;25.90;92.90;;;;;;5055398;28;20670;-56
2022/06/25 06:19:27;;;;;;;0.82;0.82;;;25.90;92.90;;;;;;5056290;28;20056;-56
2022/06/25 06:21:57;;;;;;;0.20;0.20;;;25.90;92.90;;;;;;5057247;28;20378;-58
2022/06/25 06:24:25;;;;;;;0.45;0.45;;;26.00;92.90;;;;;;5066181;28;20056;-55
2022/06/25 06:26:52;;;;;;;2.15;1.00;;;25.90;93.00;;;;;;5055647;28;20599;-60
2022/06/25 06:29:19;;;;;;;1.55;0.95;;;25.90;93.00;;;;;;5062535;28;20071;-57
2022/06/25 06:31:47;;;;;;;0.60;0.60;;;26.10;93.10;;;;;;5065139;28;20484;-59
2022/06/25 06:34:14;;;;;;;0.35;0.35;;;26.30;92.80;;;;;;5053841;28;20488;-57
2022/06/25 06:36:42;;;;;;;;;;;26.20;92.80;;;;;;5061019;28;20052;-53
2022/06/25 06:39:10;;;;;;;0.40;0.40;;;26.10;92.70;;;;;;5063134;28;19924;-56
2022/06/25 06:41:37;;;;;;;2.80;1.83;;;25.70;93.10;;;;;;5058432;28;20059;-57
2022/06/25 06:44:05;;;;;;;0.80;0.80;;;25.50;93.50;;;;;;5067969;28;20048;-57
2022/06/25 06:46:39;;;;;;;1.30;0.88;;;25.20;93.70;;;;;;5080635;28;20052;-55
2022/06/25 06:49:07;;;;;;;0.43;0.43;;;25.10;94.10;;;;;;5057047;28;20049;-57
2022/06/25 06:51:34;;;;;;;1.10;1.05;;;25.00;94.20;;;;;;5055965;28;20041;-59
2022/06/25 06:54:02;;;;;;;0.73;0.73;;;25.00;94.40;;;;;;5054212;28;20105;-56
2022/06/25 06:56:29;;;;;;;5.03;2.30;;;24.90;94.20;;;;;;5057085;28;20041;-58
2022/06/25 06:58:57;;;;;;;0.98;0.95;;;24.90;94.40;;;;;;5049751;28;20044;-58
2022/06/25 07:01:24;;;;;;;1.20;0.65;;;25.20;94.40;;;;;;5061921;28;20044;-58
2022/06/25 07:03:53;;;;;;;0.38;0.38;;;25.40;94.20;;;;;;5052370;28;20249;-53
2022/06/25 07:06:20;;;;;;;0.57;0.57;;;25.50;94.00;;;;;;5058924;28;20478;-57
2022/06/25 07:08:48;;;;;;;;;;;25.70;93.90;;;;;;5052137;28;20056;-59
2022/06/25 07:11:29;;;;;;;0.93;0.77;;;25.70;93.90;;;;;;5059407;28;19932;-58
2022/06/25 07:14:01;;;;;;;3.70;1.60;;;25.80;94.00;;;;;;5052824;28;20056;-54
2022/06/25 07:16:29;;;;;;;1.27;1.05;;;25.80;94.00;;;;;;5058755;28;20122;-53
2022/06/25 07:18:58;;;;;;;1.65;1.02;;;25.90;94.10;;;;;;5054061;28;20095;-61
2022/06/25 07:21:29;;;;;;;1.55;1.20;;;25.90;94.20;;;;;;5052268;28;20500;-56
2022/06/25 07:23:57;;;;;;;3.05;1.83;;;25.90;94.10;;;;;;5048926;28;20053;-57
2022/06/25 07:26:24;;;;;;;;;;;25.90;94.10;;;;;;5049273;28;20056;-58
2022/06/25 07:28:53;;;;;;;1.15;1.10;;;25.90;94.10;;;;;;5047753;28;20292;-57
2022/06/25 07:31:21;;;;;;;3.50;1.50;;;25.90;94.00;;;;;;5053205;28;20037;-59
2022/06/25 07:33:49;;;;;;;1.52;1.13;;;25.90;94.00;;;;;;5052801;28;20053;-59
2022/06/25 07:36:16;;;;;;;1.00;0.90;;;25.90;94.00;;;;;;5056228;28;20045;-61
2022/06/25 07:38:44;;;;;;;4.25;1.95;;;25.80;93.90;;;;;;5055576;28;20047;-60
2022/06/25 07:41:12;;;;;;;0.60;0.60;;;25.80;93.80;;;;;;5057273;28;20067;-60
2022/06/25 07:43:39;;;;;;;1.10;1.08;;;25.80;93.70;;;;;;5050866;28;20045;-60
2022/06/25 07:46:07;;;;;;;0.88;0.88;;;25.80;93.50;;;;;;5051285;28;20049;-56
2022/06/25 07:48:35;;;;;;;1.90;1.27;;;25.80;93.60;;;;;;5056564;28;20480;-58
2022/06/25 07:53:48;;;;;;;0.63;0.63;;;25.80;94.40;;;;;;5059729;28;20044;-60
2022/06/25 07:56:16;;;;;;;0.98;0.90;;;25.80;94.80;;;;;;5062252;28;20162;-60
2022/06/25 07:58:43;;;;;;;1.80;1.13;;;25.90;95.00;;;;;;5059057;28;20424;-59
2022/06/25 08:01:11;;;;;;;15.40;3.83;;;26.00;94.90;;;;;;5059660;28;20037;-59
2022/06/25 08:03:38;;;;;;;3.42;1.58;;;26.00;94.70;;;;;;5056540;28;20048;-59
2022/06/25 08:06:06;;;;;;;3.30;1.17;;;26.00;94.70;;;;;;5049599;28;20064;-59
2022/06/25 08:08:34;;;;;;;0.65;0.65;;;26.00;94.70;;;;;;5060770;28;20048;-60
2022/06/25 08:11:01;;;;;;;0.30;0.30;;;25.90;94.60;;;;;;5051464;28;20424;-58
2022/06/25 08:13:29;;;;;;;;;;;26.00;94.70;;;;;;5062743;28;20492;-58
2022/06/25 08:15:56;;;;;;;2.17;1.25;;;26.00;94.50;;;;;;5059650;28;19920;-57
2022/06/25 08:18:24;;;;;;;0.55;0.55;;;26.10;94.40;;;;;;5049394;28;20049;-61
2022/06/25 08:20:51;;;;;;;2.90;1.63;;;26.10;94.40;;;;;;5046584;28;20044;-57
2022/06/25 08:23:19;;;;;;;1.50;1.10;;;26.10;94.60;;;;;;5062200;28;20147;-60
2022/06/25 08:25:46;;;;;;;0.50;0.50;;;26.10;94.70;;;;;;5077781;28;20048;-54
2022/06/25 08:28:14;;;;;;;1.25;0.70;;;26.10;94.60;;;;;;5058193;28;20052;-59
2022/06/25 08:30:43;;;;;;;1.38;1.00;;;26.20;94.60;;;;;;5054511;28;20048;-59
2022/06/25 08:33:11;;;;;;;0.70;0.70;;;26.10;94.60;;;;;;5055365;28;20056;-59
2022/06/25 08:35:38;;;;;;;;;;;26.10;94.60;;;;;;5060380;28;20060;-61
2022/06/25 08:38:05;;;;;;;2.42;1.25;;;26.20;95.00;;;;;;5059524;28;19924;-62
2022/06/25 08:40:33;;;;;;;1.92;1.13;;;26.30;95.30;;;;;;5055630;28;20056;-59
2022/06/25 08:43:02;;;;;;;2.40;2.00;;;26.20;95.40;;;;;;5065611;28;20492;-62
2022/06/25 08:45:29;;;;;;;0.90;0.90;;;26.30;95.50;;;;;;5059907;28;20087;-64
2022/06/25 08:47:58;;;;;;;;;;;26.30;95.70;;;;;;5053546;28;20049;-67
2022/06/25 08:50:31;;;;;;;0.30;0.30;;;26.30;95.70;;;;;;5066451;28;19924;-68
2022/06/25 08:53:00;;;;;;;0.57;0.55;;;26.30;95.80;;;;;;5063524;28;20059;-65
2022/06/25 08:55:38;;;;;;;7.78;1.85;;;26.30;96.20;;;;;;5061759;28;20048;-68
2022/06/25 08:58:07;;;;;;;2.40;1.35;;;26.30;96.10;;;;;;5058472;28;20415;-63
2022/06/25 09:00:37;;;;;;;16.88;1.52;;;26.30;96.40;;;;;;5063273;28;20040;-65
2022/06/25 09:03:06;;;;;;;6.72;2.15;;;26.30;96.40;;;;;;5061294;28;20443;-66
2022/06/25 09:05:37;;;;;;;1.17;1.08;;;26.30;96.60;;;;;;5059058;28;20067;-64
2022/06/25 09:08:07;;;;;;;2.40;1.45;;;26.20;97.50;;;;;;5064831;28;20046;-60
2022/06/25 09:10:35;;;;;;;1.00;0.95;;;26.20;97.60;;;;;;5061329;28;20044;-65
2022/06/25 09:13:09;;;;;;;2.45;1.08;;;26.20;97.40;;;;;;5062909;28;20523;-62
2022/06/25 09:15:42;;;;;;;1.60;1.13;;;26.20;97.30;;;;;;5065998;28;20040;-63
2022/06/25 09:18:15;;;;;;;0.80;0.73;;;26.20;96.40;;;;;;5066499;28;20045;-63
2022/06/25 09:21:02;;;;;;;0.55;0.55;;;26.20;97.00;;;;;;5053998;28;20060;-64
2022/06/25 09:23:31;;;;;;;;;;;26.30;97.00;;;;;;5056106;28;20075;-64
2022/06/25 09:26:10;;;;;;;2.47;1.15;;;26.30;97.00;;;;;;5067276;28;19924;-61
2022/06/25 09:28:40;;;;;;;0.95;0.95;;;26.30;96.70;;;;;;5066345;28;20060;-61
2022/06/25 09:31:08;;;;;;;0.98;0.93;;;26.30;95.60;;;;;;5053060;28;20055;-62
2022/06/25 09:33:38;;;;;;;0.55;0.55;;;26.30;96.50;;;;;;5061029;28;20068;-62
2022/06/25 09:36:09;;;;;;;0.73;0.73;;;26.30;96.20;;;;;;5069761;28;20472;-61
2022/06/25 09:38:50;;;;;;;0.43;0.43;;;26.30;95.60;;;;;;5061647;28;20049;-61
2022/06/25 09:41:18;;;;;;;0.82;0.82;;;26.30;96.30;;;;;;5058628;28;20526;-61
2022/06/25 09:43:47;;;;;;;0.40;0.40;;;26.30;96.30;;;;;;5063276;28;20089;-63
2022/06/25 09:46:15;;;;;;;1.33;0.73;;;26.30;96.20;;;;;;5058341;28;20052;-62
2022/06/25 09:48:43;;;;;;;1.55;1.15;;;26.30;96.20;;;;;;5060717;28;20045;-60
2022/06/25 09:51:15;;;;;;;1.75;1.27;;;26.30;96.20;;;;;;5061181;28;20059;-59
2022/06/25 09:53:55;;;;;;;0.80;0.80;;;26.30;96.10;;;;;;5062644;28;20063;-62
2022/06/25 09:56:32;;;;;;;1.23;0.85;;;26.30;95.90;;;;;;5056988;28;20523;-61
2022/06/25 09:59:00;;;;;;;0.87;0.87;;;26.30;95.60;;;;;;5063004;28;20044;-58
2022/06/25 10:01:31;;;;;;;0.80;0.68;;;26.30;95.50;;;;;;5072809;28;20318;-61
2022/06/25 10:04:02;;;;;;;0.82;0.73;;;26.30;95.40;;;;;;5066778;28;20053;-65
2022/06/25 10:06:35;;;;;;;0.40;0.40;;;26.30;94.90;;;;;;5069067;28;20438;-63
2022/06/25 10:09:06;;;;;;;4.00;1.33;;;26.30;94.70;;;;;;5062473;28;20040;-63
2022/06/25 10:11:37;;;;;;;0.38;0.38;;;26.30;94.60;;;;;;5060775;28;20041;-61
2022/06/25 10:14:05;;;;;;;0.35;0.35;;;26.30;94.60;;;;;;5067262;28;21016;-59
2022/06/25 10:16:32;;;;;;;;;;;26.30;94.60;;;;;;5065174;28;20056;-62
2022/06/25 10:19:00;;;;;;;;;;;26.30;94.40;;;;;;5062434;28;19924;-63
2022/06/25 10:21:28;;;;;;;2.40;1.15;;;26.30;94.90;;;;;;5057777;28;19954;-62
2022/06/25 10:24:00;;;;;;;0.70;0.57;;;26.30;95.40;;;;;;5053619;28;20519;-66
2022/06/25 10:26:28;;;;;;;0.65;0.65;;;26.30;95.60;;;;;;5046711;28;20044;-66
2022/06/25 10:28:56;;;;;;;1.02;0.88;;;26.40;96.20;;;;;;5042845;28;20041;-63
2022/06/25 10:31:23;;;;;;;;;;;26.40;94.80;;;;;;5053314;28;20401;-65
2022/06/25 10:34:03;;;;;;;0.30;0.30;;;26.40;96.10;;;;;;5050428;28;20360;-65
2022/06/25 10:36:49;;;;;;;0.73;0.73;;;26.40;96.00;;;;;;5056737;28;20041;-66
2022/06/25 10:39:22;;;;;;;0.60;0.60;;;26.40;96.30;;;;;;5060007;28;20052;-66
2022/06/25 10:45:04;;;;;;;0.60;0.60;;;26.40;95.80;;;;;;5052394;28;20495;-64
2022/06/25 10:47:50;;;;;;;2.72;1.27;;;26.40;95.60;;;;;;5060894;28;20056;-65
2022/06/25 10:50:20;;;;;;;2.55;1.40;;;26.30;95.30;;;;;;5056142;28;20063;-66
2022/06/25 10:53:03;;;;;;;0.65;0.65;;;26.30;94.90;;;;;;5062993;28;20147;-65
2022/06/25 10:55:38;;;;;;;1.83;1.25;;;26.30;94.80;;;;;;5058814;28;20432;-63
2022/06/25 10:58:16;;;;;;;0.50;0.50;;;26.30;94.70;;;;;;5057559;28;20577;-65
2022/06/25 11:01:02;;;;;;;0.40;0.40;;;26.30;94.90;;;;;;5064461;28;20369;-63
2022/06/25 11:03:32;;;;;;;2.13;1.13;;;26.40;94.90;;;;;;5065758;28;20487;-66
2022/06/25 11:06:29;;;;;;;0.40;0.40;;;26.40;94.40;;;;;;5057456;28;20446;-64
2022/06/25 11:09:09;;;;;;;3.53;1.55;;;26.40;94.80;;;;;;5052285;28;20503;-60
2022/06/25 11:11:38;;;;;;;1.80;0.93;;;26.50;95.20;;;;;;5068225;28;20040;-64
2022/06/25 11:14:15;;;;;;;1.83;1.10;;;26.50;95.80;;;;;;5068771;28;20075;-62
2022/06/25 11:16:43;;;;;;;0.68;0.68;;;26.50;96.20;;;;;;5057643;28;20045;-63
2022/06/25 11:19:10;;;;;;;1.50;1.10;;;26.50;96.50;;;;;;5058731;28;20131;-63
2022/06/25 11:21:43;;;;;;;0.20;0.20;;;26.50;96.10;;;;;;5059341;28;20055;-64
2022/06/25 11:24:14;;;;;;;2.22;1.05;;;26.50;95.50;;;;;;5060277;28;20055;-63
2022/06/25 11:29:46;;;;;;;2.30;1.15;;;26.50;94.70;;;;;;5054097;28;20057;-64
2022/06/25 11:32:20;;;;;;;1.52;1.02;;;26.50;94.40;;;;;;5054053;28;20500;-64
2022/06/25 11:34:57;;;;;;;1.65;1.17;;;26.50;94.20;;;;;;5055830;28;20095;-62
2022/06/25 11:37:25;;;;;;;0.90;0.43;;;26.50;93.60;;;;;;5051051;28;20532;-58
2022/06/25 11:39:53;;;;;;;0.50;0.50;;;26.50;93.60;;;;;;5056620;28;20471;-59
2022/06/25 11:42:21;;;;;;;1.00;0.95;;;26.50;93.80;;;;;;5064789;28;20071;-56
2022/06/25 11:44:54;;;;;;;0.75;0.75;;;26.50;93.70;;;;;;5054652;28;20044;-59
2022/06/25 11:47:29;;;;;;;0.60;0.60;;;26.50;93.30;;;;;;5055188;28;20056;-65
2022/06/25 11:49:59;;;;;;;0.43;0.43;;;26.50;93.20;;;;;;5059522;28;20163;-64
2022/06/25 11:52:26;;;;;;;0.75;0.75;;;26.50;92.90;;;;;;5055840;28;20527;-60
2022/06/25 11:54:54;;;;;;;0.63;0.63;;;26.40;92.80;;;;;;5056473;28;20670;-64
2022/06/25 11:57:27;;;;;;;1.65;0.90;;;26.50;92.80;;;;;;5056941;28;20067;-63
2022/06/25 11:59:55;;;;;;;0.75;0.73;;;26.50;93.10;;;;;;5055154;28;20060;-63
2022/06/25 12:02:24;;;;;;;0.70;0.70;;;26.50;92.30;;;;;;5075448;28;20056;-63
2022/06/25 12:05:00;;;;;;;0.98;0.85;;;26.50;92.40;;;;;;5065797;28;20037;-63
2022/06/25 12:07:29;;;;;;;1.45;0.75;;;26.40;92.40;;;;;;5059426;28;20393;-64
2022/06/25 12:10:09;;;;;;;0.88;0.88;;;26.40;92.30;;;;;;5059786;28;20389;-65
2022/06/25 12:12:38;;;;;;;0.85;0.70;;;26.30;92.10;;;;;;5055962;28;20052;-63
2022/06/25 12:15:07;;;;;;;0.30;0.30;;;26.30;92.00;;;;;;5057228;28;20055;-65
2022/06/25 12:17:38;;;;;;;0.47;0.47;;;26.30;91.70;;;;;;5047867;28;20052;-65
2022/06/25 12:20:11;;;;;;;0.88;0.73;;;26.30;92.50;;;;;;5049692;28;20040;-62
2022/06/25 12:22:46;;;;;;;0.43;0.43;;;26.30;92.20;;;;;;5062779;28;20048;-62
2022/06/25 12:25:30;;;;;;;0.70;0.70;;;26.30;92.30;;;;;;5056573;28;20053;-64
2022/06/25 12:27:58;;;;;;;0.98;0.98;;;26.30;92.00;;;;;;5058108;28;20052;-63
2022/06/25 12:30:32;;;;;;;0.75;0.50;;;26.30;91.20;;;;;;5049986;28;20060;-64
2022/06/25 12:33:13;;;;;;;2.22;0.73;;;26.30;90.90;;;;;;5049129;28;20061;-63
2022/06/25 12:35:45;;;;;;;0.30;0.30;;;26.30;90.70;;;;;;5051189;28;20044;-64
2022/06/25 12:38:14;;;;;;;1.48;0.85;;;26.20;90.70;;;;;;5054630;28;20056;-66
2022/06/25 12:40:47;;;;;;;1.42;0.80;;;26.20;90.50;;;;;;5056153;28;20052;-64
2022/06/25 12:43:16;;;;;;;0.50;0.50;;;26.10;90.10;;;;;;5053883;28;20059;-63
2022/06/25 12:45:46;;;;;;;3.53;1.38;;;26.20;90.10;;;;;;5057761;28;20045;-63
2022/06/25 12:48:25;;;;;;;0.85;0.82;;;26.20;90.20;;;;;;5060964;28;20311;-63
2022/06/25 12:50:53;;;;;;;1.55;1.02;;;26.20;90.20;;;;;;5056146;28;20521;-64
2022/06/25 12:53:20;;;;;;;1.27;0.93;;;26.20;90.20;;;;;;5055336;28;20052;-64
2022/06/25 12:55:49;;;;;;;0.40;0.40;;;26.20;90.30;;;;;;5064457;28;20541;-64
2022/06/25 12:58:17;;;;;;;0.75;0.68;;;26.20;90.10;;;;;;5053073;28;20337;-64
2022/06/25 13:00:45;;;;;;;1.42;0.60;;;26.30;89.50;;;;;;5054028;28;20041;-63
2022/06/25 13:03:15;;;;;;;0.65;0.65;;;26.40;89.30;;;;;;5054826;28;20057;-64
2022/06/25 13:05:42;;;;;;;4.38;2.05;;;26.40;89.50;;;;;;5064989;28;20059;-64
2022/06/25 13:08:10;;;;;;;0.98;0.55;;;26.50;88.90;;;;;;5056878;28;20514;-65
2022/06/25 13:10:37;;;;;;;0.20;0.20;;;26.50;89.30;;;;;;5061464;28;20118;-63
2022/06/25 13:13:05;;;;;;;0.65;0.65;;;26.50;89.70;;;;;;5065482;28;20122;-65
2022/06/25 13:15:34;;;;;;;0.93;0.70;;;26.60;89.40;;;;;;5056732;28;20048;-62
2022/06/25 13:18:02;;;;;;;1.35;0.93;;;26.70;88.40;;;;;;5059035;28;20503;-64
2022/06/25 13:20:30;;;;;;;0.30;0.30;;;26.60;87.90;;;;;;5052838;28;20096;-65
2022/06/25 13:22:57;;;;;;;0.30;0.30;;;26.70;87.50;;;;;;5049614;28;20049;-63
2022/06/25 13:25:24;;;;;;;0.47;0.47;;;26.70;87.40;;;;;;5069899;28;20056;-64
2022/06/25 13:27:52;;;;;;;0.30;0.30;;;26.70;87.50;;;;;;5064653;28;20053;-64
2022/06/25 13:30:19;;;;;;;0.40;0.40;;;26.70;88.10;;;;;;5050995;28;20536;-63
2022/06/25 13:33:07;;;;;;;0.55;0.55;;;26.60;88.00;;;;;;5048882;28;20059;-65